EWG2912 EDDS-LATI
Flight info
| Callsign | EWG2912 |
|---|---|
| Flight time | 1h 39m |
| Altitude | 35000 |
| Route | ABTAL4B ABTAL L173 RIXED Y161 RIDAR Z98 MIQ L605 ESEGA DCT RADLY DCT PODET DCT PETAK |
| Aircraft | A320/M-SDE3FGHIRWY/LB1 |
Departure
| Time | 2026-05-04 21:12 |
|---|---|
| Airport | Stuttgart Airport (EDDS) |
Arrival
| Time | 2026-05-04 22:51 |
|---|---|
| Airport | Tirana International Airport Mother Teresa (LATI) |
| Time | Latitude | Longitude | Altitude | Speed | Heading |
|---|---|---|---|---|---|
| 2026-05-04 20:48 | 48.68769 | 9.19524 | 1285 ft | 0 kts | 164° |
| 2026-05-04 21:03 | 48.68763 | 9.19527 | 1285 ft | 4 kts | 165° |
| 2026-05-04 21:04 | 48.68726 | 9.19541 | 1285 ft | 6 kts | 165° |
| 2026-05-04 21:04 | 48.68712 | 9.19610 | 1285 ft | 11 kts | 74° |
| 2026-05-04 21:04 | 48.68738 | 9.19751 | 1285 ft | 17 kts | 74° |
| 2026-05-04 21:04 | 48.68763 | 9.19897 | 1285 ft | 16 kts | 69° |
| 2026-05-04 21:05 | 48.68754 | 9.20026 | 1287 ft | 11 kts | 110° |
| 2026-05-04 21:05 | 48.68777 | 9.20164 | 1288 ft | 17 kts | 74° |
| 2026-05-04 21:05 | 48.68812 | 9.20346 | 1285 ft | 19 kts | 74° |
| 2026-05-04 21:05 | 48.68853 | 9.20559 | 1286 ft | 21 kts | 73° |
| 2026-05-04 21:06 | 48.68892 | 9.20770 | 1282 ft | 22 kts | 73° |
| 2026-05-04 21:06 | 48.68939 | 9.21008 | 1275 ft | 25 kts | 73° |
| 2026-05-04 21:06 | 48.68976 | 9.21210 | 1275 ft | 15 kts | 72° |
| 2026-05-04 21:06 | 48.69006 | 9.21376 | 1269 ft | 18 kts | 74° |
| 2026-05-04 21:07 | 48.69043 | 9.21567 | 1261 ft | 18 kts | 75° |
| 2026-05-04 21:07 | 48.69082 | 9.21767 | 1261 ft | 22 kts | 76° |
| 2026-05-04 21:07 | 48.69127 | 9.22009 | 1254 ft | 26 kts | 73° |
| 2026-05-04 21:07 | 48.69176 | 9.22266 | 1244 ft | 27 kts | 73° |
| 2026-05-04 21:08 | 48.69225 | 9.22532 | 1248 ft | 25 kts | 73° |
| 2026-05-04 21:08 | 48.69274 | 9.22785 | 1230 ft | 26 kts | 73° |
| 2026-05-04 21:08 | 48.69324 | 9.23040 | 1224 ft | 23 kts | 74° |
| 2026-05-04 21:08 | 48.69366 | 9.23270 | 1218 ft | 25 kts | 73° |
| 2026-05-04 21:09 | 48.69417 | 9.23535 | 1211 ft | 28 kts | 74° |
| 2026-05-04 21:09 | 48.69466 | 9.23805 | 1205 ft | 25 kts | 73° |
| 2026-05-04 21:09 | 48.69514 | 9.24046 | 1199 ft | 25 kts | 73° |
| 2026-05-04 21:09 | 48.69545 | 9.24214 | 1195 ft | 11 kts | 75° |
| 2026-05-04 21:10 | 48.69523 | 9.24305 | 1193 ft | 9 kts | 165° |
| 2026-05-04 21:10 | 48.69483 | 9.24320 | 1193 ft | 5 kts | 166° |
| 2026-05-04 21:10 | 48.69439 | 9.24336 | 1193 ft | 11 kts | 166° |
| 2026-05-04 21:10 | 48.69390 | 9.24320 | 1194 ft | 6 kts | 247° |
| 2026-05-04 21:11 | 48.69386 | 9.24295 | 1194 ft | 0 kts | 255° |
| 2026-05-04 21:11 | 48.69378 | 9.24254 | 1195 ft | 23 kts | 254° |
| 2026-05-04 21:11 | 48.69263 | 9.23645 | 1210 ft | 94 kts | 254° |
| 2026-05-04 21:11 | 48.69029 | 9.22409 | 1247 ft | 148 kts | 254° |
| 2026-05-04 21:12 | 48.68749 | 9.20829 | 1679 ft | 156 kts | 257° |
| 2026-05-04 21:12 | 48.68480 | 9.19221 | 2337 ft | 158 kts | 257° |
| 2026-05-04 21:12 | 48.68162 | 9.17583 | 2758 ft | 171 kts | 255° |
| 2026-05-04 21:12 | 48.67798 | 9.15753 | 3036 ft | 191 kts | 255° |
| 2026-05-04 21:13 | 48.67387 | 9.13746 | 3361 ft | 209 kts | 253° |
| 2026-05-04 21:13 | 48.66918 | 9.11509 | 3537 ft | 237 kts | 251° |
| 2026-05-04 21:13 | 48.65972 | 9.09449 | 4153 ft | 245 kts | 214° |
| 2026-05-04 21:13 | 48.64373 | 9.08673 | 4908 ft | 246 kts | 176° |
| 2026-05-04 21:14 | 48.62765 | 9.09484 | 5700 ft | 247 kts | 147° |
| 2026-05-04 21:14 | 48.61616 | 9.11391 | 6502 ft | 252 kts | 114° |
| 2026-05-04 21:14 | 48.61260 | 9.14010 | 7173 ft | 264 kts | 94° |
| 2026-05-04 21:14 | 48.61443 | 9.16881 | 7642 ft | 281 kts | 84° |
| 2026-05-04 21:15 | 48.61650 | 9.19848 | 8353 ft | 286 kts | 88° |
| 2026-05-04 21:15 | 48.61789 | 9.22864 | 9121 ft | 289 kts | 89° |
| 2026-05-04 21:15 | 48.62019 | 9.25902 | 9875 ft | 295 kts | 80° |
| 2026-05-04 21:15 | 48.62669 | 9.28888 | 10469 ft | 307 kts | 70° |
| 2026-05-04 21:16 | 48.63515 | 9.31984 | 10649 ft | 330 kts | 69° |
| 2026-05-04 21:16 | 48.64449 | 9.35295 | 10804 ft | 354 kts | 69° |
| 2026-05-04 21:16 | 48.65447 | 9.38786 | 11145 ft | 368 kts | 69° |
| 2026-05-04 21:16 | 48.66472 | 9.42370 | 11724 ft | 373 kts | 68° |
| 2026-05-04 21:17 | 48.67506 | 9.46000 | 12380 ft | 378 kts | 68° |
| 2026-05-04 21:17 | 48.68544 | 9.49667 | 13032 ft | 382 kts | 68° |
| 2026-05-04 21:17 | 48.69590 | 9.53375 | 13723 ft | 383 kts | 69° |
| 2026-05-04 21:17 | 48.70629 | 9.57104 | 14332 ft | 386 kts | 70° |
| 2026-05-04 21:18 | 48.71257 | 9.61038 | 14874 ft | 385 kts | 88° |
| 2026-05-04 21:18 | 48.71108 | 9.65075 | 15389 ft | 386 kts | 101° |
| 2026-05-04 21:18 | 48.70710 | 9.69109 | 15941 ft | 389 kts | 101° |
| 2026-05-04 21:18 | 48.70295 | 9.73174 | 16491 ft | 393 kts | 101° |
| 2026-05-04 21:19 | 48.69867 | 9.77283 | 17033 ft | 397 kts | 101° |
| 2026-05-04 21:19 | 48.69433 | 9.81422 | 17584 ft | 400 kts | 101° |
| 2026-05-04 21:19 | 48.68996 | 9.85601 | 18125 ft | 404 kts | 101° |
| 2026-05-04 21:19 | 48.68558 | 9.89824 | 18608 ft | 408 kts | 101° |
| 2026-05-04 21:20 | 48.68120 | 9.94079 | 19080 ft | 411 kts | 101° |
| 2026-05-04 21:20 | 48.67677 | 9.98367 | 19565 ft | 414 kts | 102° |
| 2026-05-04 21:20 | 48.67230 | 10.02691 | 20022 ft | 418 kts | 102° |
| 2026-05-04 21:20 | 48.66775 | 10.07051 | 20445 ft | 421 kts | 101° |
| 2026-05-04 21:21 | 48.66314 | 10.11448 | 20870 ft | 425 kts | 102° |
| 2026-05-04 21:21 | 48.65845 | 10.15876 | 21307 ft | 428 kts | 102° |
| 2026-05-04 21:21 | 48.65368 | 10.20343 | 21738 ft | 431 kts | 102° |
| 2026-05-04 21:21 | 48.64886 | 10.24829 | 22150 ft | 434 kts | 102° |
| 2026-05-04 21:22 | 48.64399 | 10.29349 | 22571 ft | 437 kts | 102° |
| 2026-05-04 21:22 | 48.63909 | 10.33896 | 22970 ft | 440 kts | 102° |
| 2026-05-04 21:22 | 48.63419 | 10.38473 | 23360 ft | 442 kts | 102° |
| 2026-05-04 21:22 | 48.62926 | 10.43077 | 23705 ft | 445 kts | 102° |
| 2026-05-04 21:23 | 48.62427 | 10.47706 | 24028 ft | 447 kts | 101° |
| 2026-05-04 21:23 | 48.61923 | 10.52353 | 24353 ft | 449 kts | 102° |
| 2026-05-04 21:23 | 48.61415 | 10.57019 | 24677 ft | 451 kts | 102° |
| 2026-05-04 21:23 | 48.60904 | 10.61698 | 24999 ft | 452 kts | 102° |
| 2026-05-04 21:24 | 48.60387 | 10.66387 | 25319 ft | 454 kts | 102° |
| 2026-05-04 21:24 | 48.59864 | 10.71095 | 25628 ft | 455 kts | 102° |
| 2026-05-04 21:24 | 48.59339 | 10.75818 | 25934 ft | 457 kts | 102° |
| 2026-05-04 21:24 | 48.58864 | 10.80572 | 26207 ft | 460 kts | 97° |
| 2026-05-04 21:25 | 48.58700 | 10.85406 | 26486 ft | 462 kts | 95° |
| 2026-05-04 21:25 | 48.58573 | 10.90264 | 26748 ft | 464 kts | 94° |
| 2026-05-04 21:25 | 48.58444 | 10.95140 | 27012 ft | 465 kts | 95° |
| 2026-05-04 21:25 | 48.58314 | 11.00031 | 27263 ft | 467 kts | 95° |
| 2026-05-04 21:26 | 48.58179 | 11.04937 | 27519 ft | 468 kts | 95° |
| 2026-05-04 21:26 | 48.58038 | 11.09861 | 27765 ft | 470 kts | 95° |
| 2026-05-04 21:26 | 48.57896 | 11.14798 | 28010 ft | 471 kts | 95° |
| 2026-05-04 21:26 | 48.57780 | 11.19743 | 28243 ft | 473 kts | 94° |
| 2026-05-04 21:27 | 48.57688 | 11.24708 | 28475 ft | 474 kts | 94° |
| 2026-05-04 21:27 | 48.57605 | 11.29688 | 28761 ft | 473 kts | 94° |
| 2026-05-04 21:27 | 48.57523 | 11.34649 | 29064 ft | 472 kts | 94° |
| 2026-05-04 21:27 | 48.57439 | 11.39606 | 29364 ft | 472 kts | 94° |
| 2026-05-04 21:28 | 48.57350 | 11.44557 | 29669 ft | 471 kts | 94° |
| 2026-05-04 21:28 | 48.57254 | 11.49494 | 29985 ft | 470 kts | 94° |
| 2026-05-04 21:28 | 48.57151 | 11.54427 | 30261 ft | 469 kts | 94° |
| 2026-05-04 21:28 | 48.56971 | 11.59340 | 30538 ft | 467 kts | 99° |
| 2026-05-04 21:29 | 48.56397 | 11.64137 | 30810 ft | 464 kts | 105° |
| 2026-05-04 21:29 | 48.55701 | 11.68879 | 31080 ft | 463 kts | 105° |
| 2026-05-04 21:29 | 48.55005 | 11.73620 | 31356 ft | 462 kts | 105° |
| 2026-05-04 21:29 | 48.54313 | 11.78339 | 31612 ft | 461 kts | 104° |
| 2026-05-04 21:30 | 48.53622 | 11.83060 | 31878 ft | 460 kts | 104° |
| 2026-05-04 21:30 | 48.52931 | 11.87772 | 32137 ft | 459 kts | 105° |
| 2026-05-04 21:30 | 48.52240 | 11.92473 | 32404 ft | 459 kts | 105° |
| 2026-05-04 21:30 | 48.51546 | 11.97161 | 32681 ft | 458 kts | 105° |
| 2026-05-04 21:31 | 48.50146 | 12.06525 | 33187 ft | 457 kts | 105° |
| 2026-05-04 21:31 | 48.49446 | 12.11190 | 33438 ft | 456 kts | 105° |
| 2026-05-04 21:31 | 48.48747 | 12.15846 | 33689 ft | 456 kts | 105° |
| 2026-05-04 21:32 | 48.48039 | 12.20568 | 33891 ft | 456 kts | 105° |
| 2026-05-04 21:32 | 48.47337 | 12.25234 | 34087 ft | 456 kts | 105° |
| 2026-05-04 21:32 | 48.46634 | 12.29897 | 34280 ft | 456 kts | 105° |
| 2026-05-04 21:32 | 48.45927 | 12.34560 | 34481 ft | 457 kts | 105° |
| 2026-05-04 21:33 | 48.45214 | 12.39223 | 34671 ft | 457 kts | 105° |
| 2026-05-04 21:33 | 48.44497 | 12.43883 | 34849 ft | 457 kts | 105° |
| 2026-05-04 21:33 | 48.43780 | 12.48551 | 34908 ft | 459 kts | 105° |
| 2026-05-04 21:34 | 48.42341 | 12.57925 | 34912 ft | 460 kts | 105° |
| 2026-05-04 21:34 | 48.41141 | 12.65720 | 34912 ft | 460 kts | 105° |
| 2026-05-04 21:35 | 48.39664 | 12.75075 | 34911 ft | 458 kts | 109° |
| 2026-05-04 21:35 | 48.37594 | 12.84125 | 34913 ft | 457 kts | 112° |
| 2026-05-04 21:36 | 48.35494 | 12.93158 | 34916 ft | 458 kts | 112° |
| 2026-05-04 21:36 | 48.33387 | 13.02191 | 34895 ft | 458 kts | 112° |
| 2026-05-04 21:37 | 48.31259 | 13.11212 | 34903 ft | 458 kts | 114° |
| 2026-05-04 21:37 | 48.28127 | 13.19399 | 34907 ft | 450 kts | 132° |
| 2026-05-04 21:38 | 48.23642 | 13.25835 | 34911 ft | 446 kts | 142° |
| 2026-05-04 21:38 | 48.18914 | 13.31856 | 34910 ft | 446 kts | 142° |
| 2026-05-04 21:39 | 48.14190 | 13.37880 | 34904 ft | 446 kts | 142° |
| 2026-05-04 21:39 | 48.09454 | 13.43904 | 34908 ft | 447 kts | 142° |
| 2026-05-04 21:40 | 48.04705 | 13.49914 | 34998 ft | 448 kts | 143° |
| 2026-05-04 21:40 | 48.02329 | 13.52915 | 35207 ft | 447 kts | 142° |
| 2026-05-04 21:40 | 47.99955 | 13.55917 | 35374 ft | 447 kts | 142° |
| 2026-05-04 21:40 | 47.97583 | 13.58916 | 35533 ft | 447 kts | 142° |
| 2026-05-04 21:41 | 47.95208 | 13.61915 | 35692 ft | 447 kts | 142° |
| 2026-05-04 21:41 | 47.92835 | 13.64906 | 35863 ft | 447 kts | 143° |
| 2026-05-04 21:41 | 47.90458 | 13.67896 | 35935 ft | 448 kts | 143° |
| 2026-05-04 21:42 | 47.85684 | 13.73874 | 35942 ft | 449 kts | 143° |
| 2026-05-04 21:42 | 47.80908 | 13.79850 | 35955 ft | 449 kts | 142° |
| 2026-05-04 21:43 | 47.76131 | 13.85822 | 35958 ft | 449 kts | 142° |
| 2026-05-04 21:43 | 47.71352 | 13.91779 | 35975 ft | 448 kts | 142° |
| 2026-05-04 21:44 | 47.66562 | 13.97723 | 35974 ft | 449 kts | 142° |
| 2026-05-04 21:44 | 47.61774 | 14.03658 | 35968 ft | 449 kts | 142° |
| 2026-05-04 21:45 | 47.56974 | 14.09595 | 35988 ft | 450 kts | 143° |
| 2026-05-04 21:45 | 47.52167 | 14.15528 | 35985 ft | 450 kts | 143° |
| 2026-05-04 21:46 | 47.47316 | 14.21487 | 36006 ft | 450 kts | 143° |
| 2026-05-04 21:46 | 47.42494 | 14.27405 | 36015 ft | 451 kts | 143° |
| 2026-05-04 21:47 | 47.37699 | 14.33278 | 36026 ft | 451 kts | 143° |
| 2026-05-04 21:47 | 47.32857 | 14.39184 | 36028 ft | 452 kts | 143° |
| 2026-05-04 21:48 | 47.27982 | 14.45123 | 36029 ft | 452 kts | 143° |
| 2026-05-04 21:48 | 47.23135 | 14.51008 | 36033 ft | 452 kts | 143° |
| 2026-05-04 21:49 | 47.18286 | 14.56886 | 36034 ft | 451 kts | 143° |
| 2026-05-04 21:49 | 47.13435 | 14.62757 | 36019 ft | 452 kts | 143° |
| 2026-05-04 21:50 | 47.08572 | 14.68616 | 36041 ft | 452 kts | 143° |
| 2026-05-04 21:50 | 47.03704 | 14.74467 | 36038 ft | 452 kts | 143° |
| 2026-05-04 21:51 | 46.98834 | 14.80310 | 36036 ft | 452 kts | 143° |
| 2026-05-04 21:51 | 46.93970 | 14.86147 | 36036 ft | 452 kts | 143° |
| 2026-05-04 21:52 | 46.89091 | 14.91975 | 36024 ft | 454 kts | 144° |
| 2026-05-04 21:52 | 46.84191 | 14.97806 | 36023 ft | 455 kts | 144° |
| 2026-05-04 21:53 | 46.79286 | 15.03643 | 36012 ft | 455 kts | 143° |
| 2026-05-04 21:53 | 46.74378 | 15.09473 | 36023 ft | 455 kts | 143° |
| 2026-05-04 21:54 | 46.69460 | 15.15287 | 36036 ft | 455 kts | 143° |
| 2026-05-04 21:54 | 46.64505 | 15.21014 | 36033 ft | 454 kts | 147° |
| 2026-05-04 21:55 | 46.59141 | 15.25837 | 36039 ft | 453 kts | 150° |
| 2026-05-04 21:55 | 46.53753 | 15.30600 | 36027 ft | 454 kts | 150° |
| 2026-05-04 21:56 | 46.48360 | 15.35359 | 36024 ft | 454 kts | 151° |
| 2026-05-04 21:56 | 46.42953 | 15.40113 | 36027 ft | 454 kts | 151° |
| 2026-05-04 21:57 | 46.37577 | 15.44819 | 36041 ft | 455 kts | 150° |
| 2026-05-04 21:57 | 46.32165 | 15.49565 | 36038 ft | 455 kts | 151° |
| 2026-05-04 21:58 | 46.26745 | 15.54314 | 36038 ft | 456 kts | 151° |
| 2026-05-04 21:58 | 46.21278 | 15.59088 | 36054 ft | 456 kts | 151° |
| 2026-05-04 21:59 | 46.15847 | 15.63815 | 35846 ft | 455 kts | 150° |
| 2026-05-04 21:59 | 46.13194 | 15.66183 | 35268 ft | 454 kts | 150° |
| 2026-05-04 21:59 | 46.10491 | 15.68657 | 35049 ft | 455 kts | 149° |
| 2026-05-04 22:00 | 46.05154 | 15.73610 | 35056 ft | 458 kts | 149° |
| 2026-05-04 22:00 | 45.99786 | 15.78557 | 35060 ft | 458 kts | 150° |
| 2026-05-04 22:01 | 45.94394 | 15.83454 | 35066 ft | 458 kts | 150° |
| 2026-05-04 22:01 | 45.88994 | 15.88335 | 35063 ft | 458 kts | 150° |
| 2026-05-04 22:02 | 45.83600 | 15.93206 | 35062 ft | 459 kts | 150° |
| 2026-05-04 22:02 | 45.78199 | 15.98082 | 35049 ft | 459 kts | 150° |
| 2026-05-04 22:03 | 45.72787 | 16.02949 | 35055 ft | 459 kts | 150° |
| 2026-05-04 22:03 | 45.67376 | 16.07806 | 35045 ft | 459 kts | 150° |
| 2026-05-04 22:04 | 45.61962 | 16.12667 | 35055 ft | 459 kts | 150° |
| 2026-05-04 22:04 | 45.56544 | 16.17511 | 35063 ft | 459 kts | 150° |
| 2026-05-04 22:05 | 45.51124 | 16.22343 | 35054 ft | 460 kts | 150° |
| 2026-05-04 22:05 | 45.45691 | 16.27173 | 35064 ft | 460 kts | 150° |
| 2026-05-04 22:06 | 45.40261 | 16.31997 | 35062 ft | 460 kts | 150° |
| 2026-05-04 22:06 | 45.34826 | 16.36818 | 35056 ft | 460 kts | 150° |
| 2026-05-04 22:07 | 45.29386 | 16.41626 | 35059 ft | 461 kts | 150° |
| 2026-05-04 22:07 | 45.23935 | 16.46439 | 35061 ft | 462 kts | 149° |
| 2026-05-04 22:08 | 45.18480 | 16.51245 | 35055 ft | 462 kts | 149° |
| 2026-05-04 22:08 | 45.13017 | 16.56047 | 35051 ft | 462 kts | 150° |
| 2026-05-04 22:09 | 45.07542 | 16.60836 | 35062 ft | 463 kts | 150° |
| 2026-05-04 22:09 | 45.02057 | 16.65615 | 35068 ft | 463 kts | 150° |
| 2026-05-04 22:10 | 44.96572 | 16.70401 | 35070 ft | 464 kts | 149° |
| 2026-05-04 22:10 | 44.91079 | 16.75195 | 35060 ft | 465 kts | 150° |
| 2026-05-04 22:11 | 44.85530 | 16.80009 | 35071 ft | 466 kts | 150° |
| 2026-05-04 22:11 | 44.80938 | 16.83982 | 35080 ft | 466 kts | 150° |
| 2026-05-04 22:12 | 44.75408 | 16.88756 | 35083 ft | 466 kts | 150° |
| 2026-05-04 22:12 | 44.68935 | 16.94336 | 35084 ft | 467 kts | 150° |
| 2026-05-04 22:13 | 44.64322 | 16.98308 | 35094 ft | 468 kts | 150° |
| 2026-05-04 22:13 | 44.58763 | 17.03079 | 35096 ft | 469 kts | 150° |
| 2026-05-04 22:14 | 44.53198 | 17.07840 | 35108 ft | 469 kts | 150° |
| 2026-05-04 22:14 | 44.47637 | 17.12600 | 35110 ft | 469 kts | 150° |
| 2026-05-04 22:15 | 44.42065 | 17.17356 | 35111 ft | 469 kts | 150° |
| 2026-05-04 22:15 | 44.36481 | 17.22100 | 35119 ft | 470 kts | 150° |
| 2026-05-04 22:16 | 44.30884 | 17.26840 | 35120 ft | 470 kts | 150° |
| 2026-05-04 22:16 | 44.25290 | 17.31581 | 35133 ft | 471 kts | 150° |
| 2026-05-04 22:17 | 44.19694 | 17.36315 | 35136 ft | 470 kts | 150° |
| 2026-05-04 22:17 | 44.14086 | 17.41038 | 35133 ft | 471 kts | 150° |
| 2026-05-04 22:18 | 44.08477 | 17.45747 | 35132 ft | 471 kts | 150° |
| 2026-05-04 22:18 | 44.02865 | 17.50460 | 35131 ft | 471 kts | 150° |
| 2026-05-04 22:19 | 43.97252 | 17.55170 | 35125 ft | 471 kts | 150° |
| 2026-05-04 22:19 | 43.91634 | 17.59871 | 35131 ft | 472 kts | 150° |
| 2026-05-04 22:20 | 43.85997 | 17.64569 | 35125 ft | 473 kts | 150° |
| 2026-05-04 22:20 | 43.80355 | 17.69257 | 35126 ft | 473 kts | 150° |
| 2026-05-04 22:21 | 43.74708 | 17.73944 | 35126 ft | 473 kts | 150° |
| 2026-05-04 22:21 | 43.69061 | 17.78623 | 35130 ft | 473 kts | 150° |
| 2026-05-04 22:22 | 43.63409 | 17.83299 | 35133 ft | 474 kts | 150° |
| 2026-05-04 22:22 | 43.57743 | 17.87970 | 35128 ft | 474 kts | 150° |
| 2026-05-04 22:23 | 43.52069 | 17.92629 | 35125 ft | 475 kts | 150° |
| 2026-05-04 22:23 | 43.46390 | 17.97286 | 35124 ft | 475 kts | 150° |
| 2026-05-04 22:24 | 43.40708 | 18.01949 | 35126 ft | 476 kts | 150° |
| 2026-05-04 22:24 | 43.35020 | 18.06594 | 35130 ft | 476 kts | 150° |
| 2026-05-04 22:25 | 43.29293 | 18.11265 | 35137 ft | 476 kts | 150° |
| 2026-05-04 22:25 | 43.23598 | 18.15895 | 35142 ft | 476 kts | 150° |
| 2026-05-04 22:26 | 43.17937 | 18.20496 | 35152 ft | 476 kts | 150° |
| 2026-05-04 22:26 | 43.12200 | 18.25145 | 35159 ft | 476 kts | 150° |
| 2026-05-04 22:27 | 43.06486 | 18.29758 | 35162 ft | 477 kts | 150° |
| 2026-05-04 22:27 | 43.00766 | 18.34371 | 35160 ft | 477 kts | 150° |
| 2026-05-04 22:28 | 42.95045 | 18.38979 | 35161 ft | 478 kts | 150° |
| 2026-05-04 22:28 | 42.89315 | 18.43580 | 35168 ft | 478 kts | 150° |
| 2026-05-04 22:29 | 42.83570 | 18.48177 | 35154 ft | 479 kts | 150° |
| 2026-05-04 22:29 | 42.77816 | 18.52778 | 35146 ft | 480 kts | 150° |
| 2026-05-04 22:30 | 42.72057 | 18.57375 | 35145 ft | 480 kts | 150° |
| 2026-05-04 22:30 | 42.66294 | 18.61967 | 35150 ft | 481 kts | 150° |
| 2026-05-04 22:31 | 42.60514 | 18.66551 | 35151 ft | 481 kts | 150° |
| 2026-05-04 22:31 | 42.54732 | 18.71132 | 35156 ft | 481 kts | 150° |
| 2026-05-04 22:32 | 42.48951 | 18.75715 | 35144 ft | 481 kts | 150° |
| 2026-05-04 22:32 | 42.43161 | 18.80281 | 35145 ft | 482 kts | 150° |
| 2026-05-04 22:33 | 42.37356 | 18.84850 | 34925 ft | 484 kts | 150° |
| 2026-05-04 22:33 | 42.34440 | 18.87142 | 34405 ft | 486 kts | 150° |
| 2026-05-04 22:33 | 42.31498 | 18.89449 | 33239 ft | 493 kts | 150° |
| 2026-05-04 22:33 | 42.28529 | 18.91777 | 32270 ft | 494 kts | 150° |
| 2026-05-04 22:34 | 42.25544 | 18.94114 | 31198 ft | 498 kts | 150° |
| 2026-05-04 22:34 | 42.22536 | 18.96467 | 30031 ft | 502 kts | 150° |
| 2026-05-04 22:34 | 42.19501 | 18.98841 | 28780 ft | 505 kts | 149° |
| 2026-05-04 22:34 | 42.16465 | 19.01217 | 27567 ft | 504 kts | 149° |
| 2026-05-04 22:35 | 42.13434 | 19.03583 | 26452 ft | 498 kts | 149° |
| 2026-05-04 22:35 | 42.10511 | 19.05858 | 25841 ft | 474 kts | 149° |
| 2026-05-04 22:35 | 42.07663 | 19.08071 | 25056 ft | 472 kts | 149° |
| 2026-05-04 22:35 | 42.04823 | 19.10276 | 24289 ft | 470 kts | 149° |
| 2026-05-04 22:36 | 42.02000 | 19.12470 | 23530 ft | 467 kts | 149° |
| 2026-05-04 22:36 | 41.99190 | 19.14652 | 22744 ft | 464 kts | 149° |
| 2026-05-04 22:36 | 41.96412 | 19.16810 | 22053 ft | 459 kts | 149° |
| 2026-05-04 22:36 | 41.93659 | 19.18943 | 21384 ft | 454 kts | 149° |
| 2026-05-04 22:37 | 41.90935 | 19.21047 | 20730 ft | 450 kts | 149° |
| 2026-05-04 22:37 | 41.88234 | 19.23131 | 20083 ft | 446 kts | 149° |
| 2026-05-04 22:37 | 41.85555 | 19.25195 | 19490 ft | 441 kts | 149° |
| 2026-05-04 22:37 | 41.82903 | 19.27237 | 18902 ft | 437 kts | 148° |
| 2026-05-04 22:38 | 41.80281 | 19.29261 | 18326 ft | 433 kts | 148° |
| 2026-05-04 22:38 | 41.77829 | 19.31550 | 17764 ft | 425 kts | 138° |
| 2026-05-04 22:38 | 41.75731 | 19.34283 | 17261 ft | 417 kts | 128° |
| 2026-05-04 22:38 | 41.73883 | 19.37240 | 16756 ft | 412 kts | 127° |
| 2026-05-04 22:39 | 41.72057 | 19.40162 | 16258 ft | 407 kts | 127° |
| 2026-05-04 22:39 | 41.70245 | 19.43047 | 15741 ft | 403 kts | 127° |
| 2026-05-04 22:39 | 41.68448 | 19.45902 | 15228 ft | 399 kts | 127° |
| 2026-05-04 22:39 | 41.66641 | 19.48712 | 14687 ft | 398 kts | 131° |
| 2026-05-04 22:40 | 41.64535 | 19.51114 | 14146 ft | 399 kts | 143° |
| 2026-05-04 22:40 | 41.62097 | 19.52896 | 13512 ft | 401 kts | 155° |
| 2026-05-04 22:40 | 41.59430 | 19.53964 | 12917 ft | 400 kts | 168° |
| 2026-05-04 22:40 | 41.56675 | 19.54405 | 12297 ft | 398 kts | 173° |
| 2026-05-04 22:41 | 41.53931 | 19.54771 | 11657 ft | 395 kts | 173° |
| 2026-05-04 22:41 | 41.51206 | 19.55141 | 11065 ft | 391 kts | 173° |
| 2026-05-04 22:41 | 41.48551 | 19.55502 | 10913 ft | 375 kts | 173° |
| 2026-05-04 22:41 | 41.46015 | 19.55844 | 10788 ft | 359 kts | 173° |
| 2026-05-04 22:42 | 41.43579 | 19.56173 | 10662 ft | 345 kts | 173° |
| 2026-05-04 22:42 | 41.41240 | 19.56496 | 10541 ft | 331 kts | 173° |
| 2026-05-04 22:42 | 41.38989 | 19.56807 | 10423 ft | 319 kts | 173° |
| 2026-05-04 22:42 | 41.36816 | 19.57105 | 10274 ft | 309 kts | 173° |
| 2026-05-04 22:43 | 41.34699 | 19.57392 | 9974 ft | 302 kts | 173° |
| 2026-05-04 22:43 | 41.32609 | 19.57670 | 9507 ft | 301 kts | 173° |
| 2026-05-04 22:43 | 41.30526 | 19.57950 | 9093 ft | 300 kts | 173° |
| 2026-05-04 22:43 | 41.28452 | 19.58234 | 8702 ft | 299 kts | 173° |
| 2026-05-04 22:44 | 41.26390 | 19.58517 | 8308 ft | 297 kts | 173° |
| 2026-05-04 22:44 | 41.24340 | 19.58796 | 7926 ft | 295 kts | 173° |
| 2026-05-04 22:44 | 41.22304 | 19.59073 | 7524 ft | 293 kts | 173° |
| 2026-05-04 22:44 | 41.20291 | 19.59422 | 7151 ft | 291 kts | 163° |
| 2026-05-04 22:45 | 41.18579 | 19.60720 | 6774 ft | 283 kts | 131° |
| 2026-05-04 22:45 | 41.17672 | 19.65460 | 5957 ft | 271 kts | 80° |
| 2026-05-04 22:45 | 41.17907 | 19.67937 | 5574 ft | 269 kts | 83° |
| 2026-05-04 22:46 | 41.18093 | 19.70399 | 5189 ft | 267 kts | 83° |
| 2026-05-04 22:46 | 41.18413 | 19.72805 | 4804 ft | 264 kts | 65° |
| 2026-05-04 22:46 | 41.19566 | 19.74610 | 4414 ft | 258 kts | 29° |
| 2026-05-04 22:46 | 41.21258 | 19.75213 | 4071 ft | 249 kts | 1° |
| 2026-05-04 22:47 | 41.22939 | 19.75092 | 3749 ft | 236 kts | 352° |
| 2026-05-04 22:47 | 41.24523 | 19.74765 | 3434 ft | 226 kts | 350° |
| 2026-05-04 22:47 | 41.26041 | 19.74424 | 3127 ft | 217 kts | 351° |
| 2026-05-04 22:47 | 41.27495 | 19.74123 | 2860 ft | 207 kts | 352° |
| 2026-05-04 22:48 | 41.28885 | 19.73866 | 2630 ft | 196 kts | 353° |
| 2026-05-04 22:48 | 41.30197 | 19.73647 | 2343 ft | 184 kts | 353° |
| 2026-05-04 22:48 | 41.31413 | 19.73456 | 2118 ft | 169 kts | 353° |
| 2026-05-04 22:48 | 41.32525 | 19.73292 | 1921 ft | 154 kts | 354° |
| 2026-05-04 22:49 | 41.33564 | 19.73144 | 1679 ft | 148 kts | 354° |
| 2026-05-04 22:49 | 41.34576 | 19.73002 | 1445 ft | 145 kts | 354° |
| 2026-05-04 22:49 | 41.35580 | 19.72857 | 1195 ft | 145 kts | 354° |
| 2026-05-04 22:49 | 41.36578 | 19.72716 | 990 ft | 145 kts | 354° |
| 2026-05-04 22:50 | 41.37580 | 19.72576 | 761 ft | 145 kts | 354° |
| 2026-05-04 22:50 | 41.38578 | 19.72436 | 569 ft | 145 kts | 354° |
| 2026-05-04 22:50 | 41.39256 | 19.72349 | 394 ft | 145 kts | 355° |
| 2026-05-04 22:50 | 41.40257 | 19.72220 | 182 ft | 144 kts | 354° |
| 2026-05-04 22:51 | 41.41176 | 19.72098 | 130 ft | 117 kts | 354° |
| 2026-05-04 22:51 | 41.41811 | 19.72013 | 123 ft | 67 kts | 354° |
| 2026-05-04 22:51 | 41.42135 | 19.71973 | 121 ft | 30 kts | 355° |
| 2026-05-04 22:51 | 41.42267 | 19.71952 | 119 ft | 8 kts | 353° |
| 2026-05-04 22:52 | 41.42289 | 19.71900 | 120 ft | 7 kts | 264° |
| 2026-05-04 22:52 | 41.42283 | 19.71834 | 120 ft | 7 kts | 263° |
| 2026-05-04 22:52 | 41.42277 | 19.71762 | 117 ft | 11 kts | 263° |
| 2026-05-04 22:52 | 41.42267 | 19.71649 | 120 ft | 11 kts | 263° |
| 2026-05-04 22:53 | 41.42262 | 19.71551 | 119 ft | 9 kts | 276° |
| 2026-05-04 22:53 | 41.42262 | 19.71500 | 119 ft | 2 kts | 265° |
| 2026-05-04 22:53 | 41.42260 | 19.71475 | 120 ft | 0 kts | 264° |